Pagrindinis puslapis
METAR-TAF:

METAR-TAF

Oro uostai :

Luganvilis, Espiritu Santas, Vanuatu

platuma: 15-31S, ilguma: 167-13E, Aukštis: 41 m

Dabartinis oras

Ataskaita buvo paskelbta 1 valandą ir 36 minutes, ne 09:00 UTC
Vėjas 7 kt iš Rytų/Pietryčių
Temperatūra 26°C
Drėgmė 70%
Slėgis 1013 hPa
Matomumas 10 km arba daugiau
Mažai debesys ne aukštis 2500 ft

METAR: NVSS 220900Z 12007KT 9999 FEW025 26/20 Q1013

Laikas: 21:36 (10:36 UTC)

Prognozė

Ataskaita buvo paskelbta 5 valandos ir 36 minutes, ne 05:00 UTC
Prognozė galioja nuo 22 metu 06 UTC su 23 metu 06 UTC
Vėjas 7 kt iš Pietryčių
Matomumas 10 km arba daugiau
Išsisklaidę debesys ne aukštis 2000 ft
Su prošvaistėmis ne aukštis 4000 ft
Tikimybė 40%
tarp IN ir TE UTC
Matomumas: 9000 m
Su prošvaistėmis ne aukštis 1800 ft
lietus,

TAF: NVSS 220500Z 2206/2306 13007KT 9999 SCT020 BKN040 PROB40 INTER 2206/2212 9000 SHRA BKN018

Orai ataskaitas ir orų prognozės (METAR, TAF).

turimą stotys yra geltonos ir raudonos taškus žemėlapyje.

Perkelti pele per norėdami pamatyti stoties vardą.

Tada spustelėkite, norėdami matyti oro stebėjimo ir prognozės.

Norėdami pakeisti žemėlapį: spustelėkite ant žalios mygtukų su juodo kryžiaus žemyn,; žalią mygtuką su brūkšneliu, jei norite nutolinti; arba žalių rodyklių gretimoms žemėlapius.


METAR-TAF: